sensor_id;sensor_type;location;lat;lon;timestamp;P1;durP1;ratioP1;P2;durP2;ratioP2
10005;SDS011;5042;42.626;23.382;2023-01-13T00:00:08;5.17;;;3.97;;
10005;SDS011;5042;42.626;23.382;2023-01-13T00:02:35;5.60;;;4.20;;
10005;SDS011;5042;42.626;23.382;2023-01-13T00:05:02;4.60;;;3.83;;
10005;SDS011;5042;42.626;23.382;2023-01-13T00:07:31;4.57;;;3.97;;
10005;SDS011;5042;42.626;23.382;2023-01-13T00:09:57;5.33;;;4.03;;
10005;SDS011;5042;42.626;23.382;2023-01-13T00:12:24;6.03;;;4.30;;
10005;SDS011;5042;42.626;23.382;2023-01-13T00:14:51;5.80;;;3.90;;
10005;SDS011;5042;42.626;23.382;2023-01-13T00:17:17;4.60;;;3.60;;
10005;SDS011;5042;42.626;23.382;2023-01-13T00:19:44;5.47;;;3.97;;
10005;SDS011;5042;42.626;23.382;2023-01-13T00:22:12;5.40;;;3.97;;
10005;SDS011;5042;42.626;23.382;2023-01-13T00:24:40;6.77;;;4.27;;
10005;SDS011;5042;42.626;23.382;2023-01-13T00:27:07;5.20;;;3.77;;
10005;SDS011;5042;42.626;23.382;2023-01-13T00:29:33;4.93;;;4.10;;
10005;SDS011;5042;42.626;23.382;2023-01-13T00:32:00;6.80;;;4.33;;
10005;SDS011;5042;42.626;23.382;2023-01-13T00:34:27;5.03;;;4.10;;
10005;SDS011;5042;42.626;23.382;2023-01-13T00:36:54;7.10;;;4.70;;
10005;SDS011;5042;42.626;23.382;2023-01-13T00:39:22;6.80;;;4.33;;
10005;SDS011;5042;42.626;23.382;2023-01-13T00:41:50;6.43;;;4.33;;
10005;SDS011;5042;42.626;23.382;2023-01-13T00:44:34;5.87;;;4.47;;
10005;SDS011;5042;42.626;23.382;2023-01-13T00:47:01;4.80;;;3.90;;
10005;SDS011;5042;42.626;23.382;2023-01-13T00:49:27;7.20;;;4.67;;
10005;SDS011;5042;42.626;23.382;2023-01-13T00:51:54;6.50;;;4.43;;
10005;SDS011;5042;42.626;23.382;2023-01-13T00:54:21;7.07;;;4.37;;
10005;SDS011;5042;42.626;23.382;2023-01-13T00:56:48;6.47;;;4.63;;
10005;SDS011;5042;42.626;23.382;2023-01-13T00:59:16;6.07;;;4.50;;
10005;SDS011;5042;42.626;23.382;2023-01-13T01:01:43;5.13;;;4.20;;
10005;SDS011;5042;42.626;23.382;2023-01-13T01:04:09;5.40;;;4.10;;
10005;SDS011;5042;42.626;23.382;2023-01-13T01:06:36;6.33;;;4.23;;
10005;SDS011;5042;42.626;23.382;2023-01-13T01:09:03;5.80;;;4.33;;
10005;SDS011;5042;42.626;23.382;2023-01-13T01:11:30;3.80;;;3.40;;
10005;SDS011;5042;42.626;23.382;2023-01-13T01:14:01;5.63;;;3.73;;
10005;SDS011;5042;42.626;23.382;2023-01-13T01:16:28;4.73;;;4.23;;
10005;SDS011;5042;42.626;23.382;2023-01-13T01:18:56;6.20;;;4.47;;
10005;SDS011;5042;42.626;23.382;2023-01-13T01:21:24;4.93;;;4.03;;
10005;SDS011;5042;42.626;23.382;2023-01-13T01:23:52;4.73;;;3.90;;
10005;SDS011;5042;42.626;23.382;2023-01-13T01:26:20;4.40;;;3.60;;
10005;SDS011;5042;42.626;23.382;2023-01-13T01:28:49;4.90;;;3.90;;
10005;SDS011;5042;42.626;23.382;2023-01-13T01:31:18;5.63;;;4.30;;
10005;SDS011;5042;42.626;23.382;2023-01-13T01:33:48;4.97;;;3.77;;
10005;SDS011;5042;42.626;23.382;2023-01-13T01:36:15;5.10;;;4.03;;
10005;SDS011;5042;42.626;23.382;2023-01-13T01:38:43;5.07;;;3.97;;
10005;SDS011;5042;42.626;23.382;2023-01-13T01:41:11;5.00;;;4.00;;
10005;SDS011;5042;42.626;23.382;2023-01-13T01:43:44;5.10;;;3.60;;
10005;SDS011;5042;42.626;23.382;2023-01-13T01:46:28;4.67;;;4.03;;
10005;SDS011;5042;42.626;23.382;2023-01-13T01:48:58;4.83;;;3.90;;
10005;SDS011;5042;42.626;23.382;2023-01-13T01:51:29;4.67;;;3.67;;
10005;SDS011;5042;42.626;23.382;2023-01-13T01:53:59;4.63;;;3.53;;
10005;SDS011;5042;42.626;23.382;2023-01-13T01:56:29;5.93;;;4.10;;
10005;SDS011;5042;42.626;23.382;2023-01-13T01:58:59;4.70;;;3.63;;
10005;SDS011;5042;42.626;23.382;2023-01-13T02:01:25;4.60;;;3.67;;
10005;SDS011;5042;42.626;23.382;2023-01-13T02:03:55;4.27;;;3.63;;
10005;SDS011;5042;42.626;23.382;2023-01-13T02:06:27;4.80;;;3.63;;
10005;SDS011;5042;42.626;23.382;2023-01-13T02:08:55;6.13;;;4.07;;
10005;SDS011;5042;42.626;23.382;2023-01-13T02:11:26;4.83;;;3.97;;
10005;SDS011;5042;42.626;23.382;2023-01-13T02:14:13;5.03;;;4.17;;
10005;SDS011;5042;42.626;23.382;2023-01-13T02:16:44;4.90;;;3.87;;
10005;SDS011;5042;42.626;23.382;2023-01-13T02:19:31;5.50;;;3.80;;
10005;SDS011;5042;42.626;23.382;2023-01-13T02:25:57;4.80;;;4.07;;
10005;SDS011;5042;42.626;23.382;2023-01-13T02:28:45;4.50;;;3.80;;
10005;SDS011;5042;42.626;23.382;2023-01-13T02:31:48;4.93;;;4.10;;
10005;SDS011;5042;42.626;23.382;2023-01-13T02:34:21;4.23;;;3.77;;
10005;SDS011;5042;42.626;23.382;2023-01-13T02:36:58;4.47;;;3.77;;
10005;SDS011;5042;42.626;23.382;2023-01-13T02:39:31;5.50;;;4.10;;
10005;SDS011;5042;42.626;23.382;2023-01-13T02:42:03;5.23;;;4.03;;
10005;SDS011;5042;42.626;23.382;2023-01-13T02:44:52;5.03;;;4.10;;
10005;SDS011;5042;42.626;23.382;2023-01-13T02:47:25;5.43;;;4.23;;
10005;SDS011;5042;42.626;23.382;2023-01-13T02:49:56;4.53;;;3.93;;
10005;SDS011;5042;42.626;23.382;2023-01-13T02:52:27;6.90;;;4.50;;
10005;SDS011;5042;42.626;23.382;2023-01-13T02:54:59;6.13;;;4.50;;
10005;SDS011;5042;42.626;23.382;2023-01-13T02:57:30;4.60;;;3.97;;
10005;SDS011;5042;42.626;23.382;2023-01-13T03:00:00;5.97;;;4.20;;
10005;SDS011;5042;42.626;23.382;2023-01-13T03:02:30;4.53;;;3.97;;
10005;SDS011;5042;42.626;23.382;2023-01-13T03:04:57;5.00;;;4.17;;
10005;SDS011;5042;42.626;23.382;2023-01-13T03:10:26;6.03;;;4.17;;
10005;SDS011;5042;42.626;23.382;2023-01-13T03:13:01;5.10;;;4.10;;
10005;SDS011;5042;42.626;23.382;2023-01-13T03:15:42;6.67;;;4.37;;
10005;SDS011;5042;42.626;23.382;2023-01-13T03:18:21;5.77;;;3.97;;
10005;SDS011;5042;42.626;23.382;2023-01-13T03:20:59;4.17;;;3.77;;
10005;SDS011;5042;42.626;23.382;2023-01-13T03:23:34;5.27;;;4.33;;
10005;SDS011;5042;42.626;23.382;2023-01-13T03:26:07;5.97;;;4.17;;
10005;SDS011;5042;42.626;23.382;2023-01-13T03:28:41;4.67;;;3.60;;
10005;SDS011;5042;42.626;23.382;2023-01-13T03:31:14;5.33;;;4.07;;
10005;SDS011;5042;42.626;23.382;2023-01-13T03:33:50;4.67;;;3.97;;
10005;SDS011;5042;42.626;23.382;2023-01-13T03:36:21;5.83;;;3.87;;
10005;SDS011;5042;42.626;23.382;2023-01-13T03:38:52;5.53;;;4.27;;
10005;SDS011;5042;42.626;23.382;2023-01-13T03:41:24;5.03;;;4.17;;
10005;SDS011;5042;42.626;23.382;2023-01-13T03:43:56;4.57;;;3.50;;
10005;SDS011;5042;42.626;23.382;2023-01-13T03:46:48;5.53;;;3.53;;
10005;SDS011;5042;42.626;23.382;2023-01-13T03:49:22;4.43;;;3.60;;
10005;SDS011;5042;42.626;23.382;2023-01-13T03:51:52;4.33;;;3.87;;
10005;SDS011;5042;42.626;23.382;2023-01-13T03:54:21;5.30;;;3.80;;
10005;SDS011;5042;42.626;23.382;2023-01-13T03:56:53;3.63;;;3.27;;
10005;SDS011;5042;42.626;23.382;2023-01-13T03:59:25;4.50;;;3.90;;
10005;SDS011;5042;42.626;23.382;2023-01-13T04:01:58;4.43;;;3.93;;
10005;SDS011;5042;42.626;23.382;2023-01-13T04:04:31;5.70;;;4.13;;
10005;SDS011;5042;42.626;23.382;2023-01-13T04:07:01;4.27;;;3.80;;
10005;SDS011;5042;42.626;23.382;2023-01-13T04:09:40;4.20;;;3.80;;
10005;SDS011;5042;42.626;23.382;2023-01-13T04:12:15;4.10;;;3.50;;
10005;SDS011;5042;42.626;23.382;2023-01-13T04:14:49;4.10;;;3.70;;
10005;SDS011;5042;42.626;23.382;2023-01-13T04:17:17;4.80;;;3.77;;
10005;SDS011;5042;42.626;23.382;2023-01-13T04:19:46;4.73;;;3.70;;
10005;SDS011;5042;42.626;23.382;2023-01-13T04:22:13;4.80;;;3.83;;
10005;SDS011;5042;42.626;23.382;2023-01-13T04:24:39;4.40;;;4.00;;
10005;SDS011;5042;42.626;23.382;2023-01-13T04:27:06;4.00;;;3.60;;
10005;SDS011;5042;42.626;23.382;2023-01-13T04:29:33;4.40;;;3.83;;
10005;SDS011;5042;42.626;23.382;2023-01-13T04:32:00;4.97;;;4.10;;
10005;SDS011;5042;42.626;23.382;2023-01-13T04:34:27;5.30;;;3.77;;
10005;SDS011;5042;42.626;23.382;2023-01-13T04:36:55;7.00;;;4.33;;
10005;SDS011;5042;42.626;23.382;2023-01-13T04:39:22;4.57;;;3.87;;
10005;SDS011;5042;42.626;23.382;2023-01-13T04:41:49;5.37;;;3.67;;
10005;SDS011;5042;42.626;23.382;2023-01-13T04:44:25;5.80;;;4.30;;
10005;SDS011;5042;42.626;23.382;2023-01-13T04:46:52;5.47;;;4.23;;
10005;SDS011;5042;42.626;23.382;2023-01-13T04:49:18;4.17;;;3.77;;
10005;SDS011;5042;42.626;23.382;2023-01-13T04:51:45;5.00;;;3.77;;
10005;SDS011;5042;42.626;23.382;2023-01-13T04:54:14;5.03;;;3.80;;
10005;SDS011;5042;42.626;23.382;2023-01-13T04:56:41;4.83;;;4.03;;
10005;SDS011;5042;42.626;23.382;2023-01-13T04:59:08;4.50;;;4.03;;
10005;SDS011;5042;42.626;23.382;2023-01-13T05:01:35;4.93;;;3.73;;
10005;SDS011;5042;42.626;23.382;2023-01-13T05:04:02;5.03;;;4.23;;
10005;SDS011;5042;42.626;23.382;2023-01-13T05:06:29;5.40;;;4.10;;
10005;SDS011;5042;42.626;23.382;2023-01-13T05:08:55;4.90;;;3.90;;
10005;SDS011;5042;42.626;23.382;2023-01-13T05:11:24;4.60;;;4.17;;
10005;SDS011;5042;42.626;23.382;2023-01-13T05:14:08;5.53;;;4.60;;
10005;SDS011;5042;42.626;23.382;2023-01-13T05:16:52;5.33;;;4.43;;
10005;SDS011;5042;42.626;23.382;2023-01-13T05:19:27;5.00;;;4.33;;
10005;SDS011;5042;42.626;23.382;2023-01-13T05:21:54;5.30;;;4.60;;
10005;SDS011;5042;42.626;23.382;2023-01-13T05:24:39;5.37;;;4.50;;
10005;SDS011;5042;42.626;23.382;2023-01-13T05:27:24;5.57;;;4.60;;
10005;SDS011;5042;42.626;23.382;2023-01-13T05:29:51;5.23;;;4.20;;
10005;SDS011;5042;42.626;23.382;2023-01-13T05:32:19;4.67;;;4.17;;
10005;SDS011;5042;42.626;23.382;2023-01-13T05:34:46;4.97;;;4.23;;
10005;SDS011;5042;42.626;23.382;2023-01-13T05:37:13;5.17;;;4.30;;
10005;SDS011;5042;42.626;23.382;2023-01-13T05:39:40;5.00;;;4.37;;
10005;SDS011;5042;42.626;23.382;2023-01-13T05:42:26;5.97;;;4.37;;
10005;SDS011;5042;42.626;23.382;2023-01-13T05:45:10;5.27;;;4.70;;
10005;SDS011;5042;42.626;23.382;2023-01-13T05:47:37;5.77;;;4.73;;
10005;SDS011;5042;42.626;23.382;2023-01-13T05:50:04;6.57;;;4.70;;
10005;SDS011;5042;42.626;23.382;2023-01-13T05:52:31;6.17;;;5.30;;
10005;SDS011;5042;42.626;23.382;2023-01-13T05:54:58;6.83;;;4.80;;
10005;SDS011;5042;42.626;23.382;2023-01-13T05:57:26;7.17;;;5.33;;
10005;SDS011;5042;42.626;23.382;2023-01-13T05:59:53;5.13;;;4.37;;
10005;SDS011;5042;42.626;23.382;2023-01-13T06:02:19;6.83;;;4.90;;
10005;SDS011;5042;42.626;23.382;2023-01-13T06:04:46;5.87;;;4.90;;
10005;SDS011;5042;42.626;23.382;2023-01-13T06:07:13;7.33;;;5.00;;
10005;SDS011;5042;42.626;23.382;2023-01-13T06:09:40;7.43;;;5.70;;
10005;SDS011;5042;42.626;23.382;2023-01-13T06:12:08;6.47;;;5.17;;
10005;SDS011;5042;42.626;23.382;2023-01-13T06:14:37;7.33;;;5.37;;
10005;SDS011;5042;42.626;23.382;2023-01-13T06:17:05;7.43;;;5.50;;
10005;SDS011;5042;42.626;23.382;2023-01-13T06:19:33;7.77;;;5.90;;
10005;SDS011;5042;42.626;23.382;2023-01-13T06:22:01;8.20;;;5.73;;
10005;SDS011;5042;42.626;23.382;2023-01-13T06:24:33;8.07;;;5.90;;
10005;SDS011;5042;42.626;23.382;2023-01-13T06:27:01;10.77;;;6.50;;
10005;SDS011;5042;42.626;23.382;2023-01-13T06:29:29;8.47;;;6.00;;
10005;SDS011;5042;42.626;23.382;2023-01-13T06:31:57;8.63;;;6.13;;
10005;SDS011;5042;42.626;23.382;2023-01-13T06:34:26;7.67;;;5.97;;
10005;SDS011;5042;42.626;23.382;2023-01-13T06:36:53;11.10;;;6.73;;
10005;SDS011;5042;42.626;23.382;2023-01-13T06:39:21;9.80;;;6.40;;
10005;SDS011;5042;42.626;23.382;2023-01-13T06:41:53;10.70;;;7.50;;
10005;SDS011;5042;42.626;23.382;2023-01-13T06:44:38;11.20;;;6.57;;
10005;SDS011;5042;42.626;23.382;2023-01-13T06:47:06;8.83;;;6.37;;
10005;SDS011;5042;42.626;23.382;2023-01-13T06:49:33;9.93;;;6.10;;
10005;SDS011;5042;42.626;23.382;2023-01-13T06:52:00;9.90;;;6.60;;
10005;SDS011;5042;42.626;23.382;2023-01-13T06:54:27;9.53;;;6.67;;
10005;SDS011;5042;42.626;23.382;2023-01-13T06:56:54;8.97;;;6.27;;
10005;SDS011;5042;42.626;23.382;2023-01-13T06:59:20;9.37;;;6.70;;
10005;SDS011;5042;42.626;23.382;2023-01-13T07:01:47;9.13;;;6.60;;
10005;SDS011;5042;42.626;23.382;2023-01-13T07:04:16;9.63;;;7.00;;
10005;SDS011;5042;42.626;23.382;2023-01-13T07:06:42;10.77;;;7.10;;
10005;SDS011;5042;42.626;23.382;2023-01-13T07:09:09;7.87;;;6.50;;
10005;SDS011;5042;42.626;23.382;2023-01-13T07:11:36;11.07;;;6.77;;
10005;SDS011;5042;42.626;23.382;2023-01-13T07:14:03;11.30;;;7.23;;
10005;SDS011;5042;42.626;23.382;2023-01-13T07:16:47;8.73;;;6.67;;
10005;SDS011;5042;42.626;23.382;2023-01-13T07:19:15;10.17;;;7.07;;
10005;SDS011;5042;42.626;23.382;2023-01-13T07:21:47;10.33;;;7.00;;
10005;SDS011;5042;42.626;23.382;2023-01-13T07:24:14;10.97;;;7.07;;
10005;SDS011;5042;42.626;23.382;2023-01-13T07:26:40;11.30;;;6.47;;
10005;SDS011;5042;42.626;23.382;2023-01-13T07:29:07;10.53;;;7.57;;
10005;SDS011;5042;42.626;23.382;2023-01-13T07:31:34;7.67;;;6.17;;
10005;SDS011;5042;42.626;23.382;2023-01-13T07:34:03;9.93;;;6.63;;
10005;SDS011;5042;42.626;23.382;2023-01-13T07:36:31;8.50;;;6.80;;
10005;SDS011;5042;42.626;23.382;2023-01-13T07:38:58;11.13;;;6.43;;
10005;SDS011;5042;42.626;23.382;2023-01-13T07:41:24;8.87;;;5.87;;
10005;SDS011;5042;42.626;23.382;2023-01-13T07:44:09;11.13;;;7.30;;
10005;SDS011;5042;42.626;23.382;2023-01-13T07:46:36;8.33;;;5.70;;
10005;SDS011;5042;42.626;23.382;2023-01-13T07:49:03;9.47;;;5.53;;
10005;SDS011;5042;42.626;23.382;2023-01-13T07:51:35;9.07;;;5.93;;
10005;SDS011;5042;42.626;23.382;2023-01-13T07:54:02;7.70;;;6.33;;
10005;SDS011;5042;42.626;23.382;2023-01-13T07:56:30;9.83;;;5.93;;
10005;SDS011;5042;42.626;23.382;2023-01-13T07:58:57;9.27;;;5.70;;
10005;SDS011;5042;42.626;23.382;2023-01-13T08:01:24;7.70;;;5.50;;
10005;SDS011;5042;42.626;23.382;2023-01-13T08:03:52;7.33;;;5.33;;
10005;SDS011;5042;42.626;23.382;2023-01-13T08:06:20;7.57;;;6.00;;
10005;SDS011;5042;42.626;23.382;2023-01-13T08:08:48;7.00;;;5.13;;
10005;SDS011;5042;42.626;23.382;2023-01-13T08:11:15;7.70;;;5.00;;
10005;SDS011;5042;42.626;23.382;2023-01-13T08:13:42;6.20;;;5.10;;
10005;SDS011;5042;42.626;23.382;2023-01-13T08:16:09;7.33;;;4.97;;
10005;SDS011;5042;42.626;23.382;2023-01-13T08:18:38;8.53;;;5.63;;
10005;SDS011;5042;42.626;23.382;2023-01-13T08:21:06;8.47;;;5.67;;
10005;SDS011;5042;42.626;23.382;2023-01-13T08:23:34;6.63;;;4.67;;
10005;SDS011;5042;42.626;23.382;2023-01-13T08:26:05;6.70;;;5.40;;
10005;SDS011;5042;42.626;23.382;2023-01-13T08:28:32;6.80;;;4.70;;
10005;SDS011;5042;42.626;23.382;2023-01-13T08:30:59;10.37;;;5.40;;
10005;SDS011;5042;42.626;23.382;2023-01-13T08:33:27;6.47;;;5.50;;
10005;SDS011;5042;42.626;23.382;2023-01-13T08:35:54;8.83;;;5.70;;
10005;SDS011;5042;42.626;23.382;2023-01-13T08:38:21;7.90;;;5.00;;
10005;SDS011;5042;42.626;23.382;2023-01-13T08:40:48;7.80;;;5.07;;
10005;SDS011;5042;42.626;23.382;2023-01-13T08:43:16;6.73;;;4.93;;
10005;SDS011;5042;42.626;23.382;2023-01-13T08:45:43;6.63;;;4.80;;
10005;SDS011;5042;42.626;23.382;2023-01-13T08:48:10;7.57;;;5.07;;
10005;SDS011;5042;42.626;23.382;2023-01-13T08:50:37;6.63;;;4.80;;
10005;SDS011;5042;42.626;23.382;2023-01-13T08:53:04;6.43;;;4.30;;
10005;SDS011;5042;42.626;23.382;2023-01-13T08:55:30;4.40;;;3.73;;
10005;SDS011;5042;42.626;23.382;2023-01-13T08:57:57;6.03;;;4.07;;
10005;SDS011;5042;42.626;23.382;2023-01-13T09:00:25;4.33;;;3.83;;
10005;SDS011;5042;42.626;23.382;2023-01-13T09:02:52;5.23;;;3.63;;
10005;SDS011;5042;42.626;23.382;2023-01-13T09:05:19;4.47;;;3.40;;
10005;SDS011;5042;42.626;23.382;2023-01-13T09:07:46;5.13;;;3.53;;
10005;SDS011;5042;42.626;23.382;2023-01-13T09:10:13;4.77;;;3.60;;
10005;SDS011;5042;42.626;23.382;2023-01-13T09:12:39;6.03;;;3.60;;
10005;SDS011;5042;42.626;23.382;2023-01-13T09:15:24;7.37;;;4.13;;
10005;SDS011;5042;42.626;23.382;2023-01-13T09:17:52;5.97;;;4.20;;
10005;SDS011;5042;42.626;23.382;2023-01-13T09:20:19;4.90;;;4.00;;
10005;SDS011;5042;42.626;23.382;2023-01-13T09:22:46;4.37;;;3.80;;
10005;SDS011;5042;42.626;23.382;2023-01-13T09:25:12;4.57;;;3.63;;
10005;SDS011;5042;42.626;23.382;2023-01-13T09:27:39;3.50;;;3.20;;
10005;SDS011;5042;42.626;23.382;2023-01-13T09:30:07;5.17;;;3.30;;
10005;SDS011;5042;42.626;23.382;2023-01-13T09:32:36;4.70;;;3.30;;
10005;SDS011;5042;42.626;23.382;2023-01-13T09:35:03;3.93;;;3.50;;
10005;SDS011;5042;42.626;23.382;2023-01-13T09:37:30;4.50;;;4.00;;
10005;SDS011;5042;42.626;23.382;2023-01-13T09:39:59;4.80;;;3.80;;
10005;SDS011;5042;42.626;23.382;2023-01-13T09:42:32;5.87;;;4.47;;
10005;SDS011;5042;42.626;23.382;2023-01-13T09:45:25;5.73;;;4.13;;
10005;SDS011;5042;42.626;23.382;2023-01-13T09:47:58;6.67;;;4.17;;
10005;SDS011;5042;42.626;23.382;2023-01-13T09:50:36;5.47;;;3.90;;
10005;SDS011;5042;42.626;23.382;2023-01-13T09:53:20;5.63;;;4.40;;
10005;SDS011;5042;42.626;23.382;2023-01-13T09:55:51;6.87;;;4.80;;
10005;SDS011;5042;42.626;23.382;2023-01-13T09:58:18;8.23;;;5.40;;
10005;SDS011;5042;42.626;23.382;2023-01-13T10:00:47;6.90;;;4.77;;
10005;SDS011;5042;42.626;23.382;2023-01-13T10:03:30;8.13;;;5.00;;
10005;SDS011;5042;42.626;23.382;2023-01-13T10:05:59;6.17;;;4.60;;
10005;SDS011;5042;42.626;23.382;2023-01-13T10:08:31;4.33;;;3.93;;
10005;SDS011;5042;42.626;23.382;2023-01-13T10:11:00;4.73;;;3.47;;
10005;SDS011;5042;42.626;23.382;2023-01-13T10:13:49;8.47;;;4.30;;
10005;SDS011;5042;42.626;23.382;2023-01-13T10:16:24;5.00;;;3.53;;
10005;SDS011;5042;42.626;23.382;2023-01-13T10:19:04;3.37;;;2.93;;
10005;SDS011;5042;42.626;23.382;2023-01-13T10:24:45;2.93;;;2.53;;
10005;SDS011;5042;42.626;23.382;2023-01-13T10:27:44;4.23;;;2.43;;
10005;SDS011;5042;42.626;23.382;2023-01-13T10:30:18;6.87;;;2.77;;
10005;SDS011;5042;42.626;23.382;2023-01-13T10:32:47;3.00;;;2.70;;
10005;SDS011;5042;42.626;23.382;2023-01-13T10:35:19;3.00;;;2.60;;
10005;SDS011;5042;42.626;23.382;2023-01-13T10:38:17;3.10;;;2.20;;
10005;SDS011;5042;42.626;23.382;2023-01-13T10:40:46;3.13;;;2.20;;
10005;SDS011;5042;42.626;23.382;2023-01-13T10:43:14;3.47;;;2.50;;
10005;SDS011;5042;42.626;23.382;2023-01-13T10:45:42;3.30;;;2.60;;
10005;SDS011;5042;42.626;23.382;2023-01-13T10:48:16;4.00;;;2.60;;
10005;SDS011;5042;42.626;23.382;2023-01-13T10:50:44;2.70;;;2.50;;
10005;SDS011;5042;42.626;23.382;2023-01-13T10:53:17;2.67;;;2.40;;
10005;SDS011;5042;42.626;23.382;2023-01-13T10:55:57;3.90;;;2.77;;
10005;SDS011;5042;42.626;23.382;2023-01-13T10:58:25;2.70;;;2.50;;
10005;SDS011;5042;42.626;23.382;2023-01-13T11:01:00;2.73;;;2.40;;
10005;SDS011;5042;42.626;23.382;2023-01-13T11:03:35;4.70;;;3.10;;
10005;SDS011;5042;42.626;23.382;2023-01-13T11:06:07;4.20;;;3.10;;
10005;SDS011;5042;42.626;23.382;2023-01-13T11:08:41;3.27;;;2.77;;
10005;SDS011;5042;42.626;23.382;2023-01-13T11:14:13;3.20;;;2.90;;
10005;SDS011;5042;42.626;23.382;2023-01-13T11:17:05;3.50;;;2.80;;
10005;SDS011;5042;42.626;23.382;2023-01-13T11:19:40;3.73;;;2.90;;
10005;SDS011;5042;42.626;23.382;2023-01-13T11:22:11;3.77;;;2.83;;
10005;SDS011;5042;42.626;23.382;2023-01-13T11:24:43;4.13;;;3.17;;
10005;SDS011;5042;42.626;23.382;2023-01-13T11:27:16;5.13;;;3.03;;
10005;SDS011;5042;42.626;23.382;2023-01-13T11:29:52;3.23;;;2.77;;
10005;SDS011;5042;42.626;23.382;2023-01-13T11:32:25;3.17;;;2.80;;
10005;SDS011;5042;42.626;23.382;2023-01-13T11:34:58;3.10;;;2.77;;
10005;SDS011;5042;42.626;23.382;2023-01-13T11:37:29;4.03;;;3.07;;
10005;SDS011;5042;42.626;23.382;2023-01-13T11:39:59;3.17;;;2.90;;
10005;SDS011;5042;42.626;23.382;2023-01-13T11:42:31;3.00;;;2.50;;
10005;SDS011;5042;42.626;23.382;2023-01-13T11:45:03;2.53;;;2.30;;
10005;SDS011;5042;42.626;23.382;2023-01-13T11:47:36;3.07;;;2.60;;
10005;SDS011;5042;42.626;23.382;2023-01-13T11:50:05;2.93;;;2.73;;
10005;SDS011;5042;42.626;23.382;2023-01-13T11:52:47;2.83;;;2.60;;
10005;SDS011;5042;42.626;23.382;2023-01-13T11:55:34;2.53;;;2.30;;
10005;SDS011;5042;42.626;23.382;2023-01-13T11:58:13;2.90;;;2.60;;
10005;SDS011;5042;42.626;23.382;2023-01-13T12:01:02;2.73;;;2.53;;
10005;SDS011;5042;42.626;23.382;2023-01-13T12:03:39;2.60;;;2.40;;
10005;SDS011;5042;42.626;23.382;2023-01-13T12:06:17;3.17;;;2.73;;
10005;SDS011;5042;42.626;23.382;2023-01-13T12:09:02;2.90;;;2.60;;
10005;SDS011;5042;42.626;23.382;2023-01-13T12:11:42;3.37;;;2.60;;
10005;SDS011;5042;42.626;23.382;2023-01-13T12:14:38;4.00;;;2.93;;
10005;SDS011;5042;42.626;23.382;2023-01-13T12:17:18;3.43;;;3.13;;
10005;SDS011;5042;42.626;23.382;2023-01-13T12:19:51;3.83;;;3.30;;
10005;SDS011;5042;42.626;23.382;2023-01-13T12:22:19;3.20;;;2.90;;
10005;SDS011;5042;42.626;23.382;2023-01-13T12:24:53;3.33;;;2.73;;
10005;SDS011;5042;42.626;23.382;2023-01-13T12:27:33;4.00;;;3.27;;
10005;SDS011;5042;42.626;23.382;2023-01-13T12:30:12;3.07;;;2.70;;
10005;SDS011;5042;42.626;23.382;2023-01-13T12:32:47;3.80;;;2.90;;
10005;SDS011;5042;42.626;23.382;2023-01-13T12:35:18;3.50;;;3.20;;
10005;SDS011;5042;42.626;23.382;2023-01-13T12:37:56;4.77;;;3.10;;
10005;SDS011;5042;42.626;23.382;2023-01-13T12:43:16;3.50;;;2.87;;
10005;SDS011;5042;42.626;23.382;2023-01-13T12:49:04;3.20;;;2.90;;
10005;SDS011;5042;42.626;23.382;2023-01-13T12:51:32;3.30;;;3.00;;
10005;SDS011;5042;42.626;23.382;2023-01-13T12:54:00;3.90;;;3.60;;
10005;SDS011;5042;42.626;23.382;2023-01-13T12:56:40;3.87;;;3.47;;
10005;SDS011;5042;42.626;23.382;2023-01-13T13:02:25;11.50;;;9.13;;
10005;SDS011;5042;42.626;23.382;2023-01-13T13:04:54;9.07;;;7.47;;
10005;SDS011;5042;42.626;23.382;2023-01-13T13:07:25;6.37;;;5.77;;
10005;SDS011;5042;42.626;23.382;2023-01-13T13:10:03;5.07;;;4.17;;
10005;SDS011;5042;42.626;23.382;2023-01-13T13:12:51;4.30;;;3.70;;
10005;SDS011;5042;42.626;23.382;2023-01-13T13:15:38;4.23;;;3.83;;
10005;SDS011;5042;42.626;23.382;2023-01-13T13:20:53;5.03;;;4.50;;
10005;SDS011;5042;42.626;23.382;2023-01-13T13:35:32;6.30;;;4.63;;
10005;SDS011;5042;42.626;23.382;2023-01-13T13:38:19;5.80;;;4.80;;
10005;SDS011;5042;42.626;23.382;2023-01-13T13:41:15;7.70;;;5.50;;
10005;SDS011;5042;42.626;23.382;2023-01-13T13:44:04;7.13;;;5.00;;
10005;SDS011;5042;42.626;23.382;2023-01-13T13:46:57;6.67;;;5.27;;
10005;SDS011;5042;42.626;23.382;2023-01-13T13:49:34;9.13;;;5.40;;
10005;SDS011;5042;42.626;23.382;2023-01-13T13:52:04;5.53;;;4.70;;
10005;SDS011;5042;42.626;23.382;2023-01-13T13:54:35;6.80;;;4.90;;
10005;SDS011;5042;42.626;23.382;2023-01-13T13:57:11;7.77;;;5.10;;
10005;SDS011;5042;42.626;23.382;2023-01-13T13:59:41;11.27;;;8.33;;
10005;SDS011;5042;42.626;23.382;2023-01-13T14:02:13;19.77;;;13.73;;
10005;SDS011;5042;42.626;23.382;2023-01-13T14:04:45;8.90;;;7.10;;
10005;SDS011;5042;42.626;23.382;2023-01-13T14:07:15;12.77;;;9.50;;
10005;SDS011;5042;42.626;23.382;2023-01-13T14:09:45;10.13;;;6.17;;
10005;SDS011;5042;42.626;23.382;2023-01-13T14:12:15;13.73;;;11.97;;
10005;SDS011;5042;42.626;23.382;2023-01-13T14:14:44;15.23;;;11.30;;
10005;SDS011;5042;42.626;23.382;2023-01-13T14:17:21;8.73;;;6.97;;
10005;SDS011;5042;42.626;23.382;2023-01-13T14:19:51;8.43;;;6.00;;
10005;SDS011;5042;42.626;23.382;2023-01-13T14:22:21;5.83;;;5.23;;
10005;SDS011;5042;42.626;23.382;2023-01-13T14:24:48;6.67;;;5.10;;
10005;SDS011;5042;42.626;23.382;2023-01-13T14:27:20;5.53;;;4.40;;
10005;SDS011;5042;42.626;23.382;2023-01-13T14:29:48;5.80;;;4.50;;
10005;SDS011;5042;42.626;23.382;2023-01-13T14:32:18;8.00;;;5.50;;
10005;SDS011;5042;42.626;23.382;2023-01-13T14:34:48;5.93;;;5.33;;
10005;SDS011;5042;42.626;23.382;2023-01-13T14:37:24;7.87;;;6.10;;
10005;SDS011;5042;42.626;23.382;2023-01-13T14:39:58;8.13;;;5.60;;
10005;SDS011;5042;42.626;23.382;2023-01-13T14:42:24;9.57;;;6.77;;
10005;SDS011;5042;42.626;23.382;2023-01-13T14:44:53;6.83;;;5.37;;
10005;SDS011;5042;42.626;23.382;2023-01-13T14:47:24;5.80;;;5.23;;
10005;SDS011;5042;42.626;23.382;2023-01-13T14:49:55;5.67;;;4.80;;
10005;SDS011;5042;42.626;23.382;2023-01-13T14:52:27;6.17;;;4.73;;
10005;SDS011;5042;42.626;23.382;2023-01-13T14:57:49;5.73;;;4.80;;
10005;SDS011;5042;42.626;23.382;2023-01-13T15:00:18;6.10;;;5.50;;
10005;SDS011;5042;42.626;23.382;2023-01-13T15:02:49;7.30;;;4.73;;
10005;SDS011;5042;42.626;23.382;2023-01-13T15:05:33;5.10;;;4.60;;
10005;SDS011;5042;42.626;23.382;2023-01-13T15:08:06;5.33;;;4.50;;
10005;SDS011;5042;42.626;23.382;2023-01-13T15:10:49;7.07;;;5.27;;
10005;SDS011;5042;42.626;23.382;2023-01-13T15:13:23;6.50;;;5.10;;
10005;SDS011;5042;42.626;23.382;2023-01-13T15:15:52;5.60;;;4.60;;
10005;SDS011;5042;42.626;23.382;2023-01-13T15:18:22;6.60;;;4.97;;
10005;SDS011;5042;42.626;23.382;2023-01-13T15:20:49;7.57;;;5.00;;
10005;SDS011;5042;42.626;23.382;2023-01-13T15:23:18;6.93;;;4.83;;
10005;SDS011;5042;42.626;23.382;2023-01-13T15:25:45;6.30;;;5.20;;
10005;SDS011;5042;42.626;23.382;2023-01-13T15:28:15;8.33;;;5.03;;
10005;SDS011;5042;42.626;23.382;2023-01-13T15:30:45;5.77;;;4.80;;
10005;SDS011;5042;42.626;23.382;2023-01-13T15:33:12;5.23;;;4.43;;
10005;SDS011;5042;42.626;23.382;2023-01-13T15:35:42;5.27;;;4.63;;
10005;SDS011;5042;42.626;23.382;2023-01-13T15:38:11;6.13;;;4.27;;
10005;SDS011;5042;42.626;23.382;2023-01-13T15:40:39;4.40;;;4.00;;
10005;SDS011;5042;42.626;23.382;2023-01-13T15:43:08;4.80;;;4.10;;
10005;SDS011;5042;42.626;23.382;2023-01-13T15:45:55;4.70;;;4.17;;
10005;SDS011;5042;42.626;23.382;2023-01-13T15:48:40;5.50;;;4.80;;
10005;SDS011;5042;42.626;23.382;2023-01-13T15:51:09;5.63;;;5.00;;
10005;SDS011;5042;42.626;23.382;2023-01-13T15:53:36;6.27;;;5.00;;